Jewell, Ohio
Current Conditions -  °F | °C
As of 7:10 AM on Monday 24 Nov 2014 (Local Time) from KDFI Reporting Station
Light Rain Light Rain  
Wind Chill: 56°   Ceiling: 7000
Heat Index: 56°   Visibility: 8mi
Dew Point: 52°   Wind: 21mph
Humidity: 87%   Direction: 200°SSW
Pressure: 29.17"   Gusts: 29mph
Location:  41.33°N, 84.29°W
Report Text: KDFI 241210Z AUTO 20018G25KT 8SM -RA FEW021 BKN070 OVC110 13/11 A2917 RMK AO2 P0001 T01330111
Loading
Personal Weather Stations






























Interactive Weather Map New forecast layout! Learn more

10-Day Weather Forecast

Advertisements
Track Severe Weather on mobile